createdAt,value
2019-03-27T00:00:19.439Z,22.42
2019-03-27T00:02:48.741Z,26.80
2019-03-27T00:05:18.082Z,28.92
2019-03-27T00:07:47.423Z,27.25
2019-03-27T00:10:16.769Z,31.10
2019-03-27T00:12:46.120Z,22.75
2019-03-27T00:15:15.429Z,27.98
2019-03-27T00:17:44.764Z,28.85
2019-03-27T00:20:14.381Z,22.15
2019-03-27T00:22:43.699Z,26.35
2019-03-27T00:25:13.310Z,36.00
2019-03-27T00:27:42.690Z,29.85
2019-03-27T00:30:12.409Z,29.85
2019-03-27T00:32:41.742Z,29.82
2019-03-27T00:35:11.076Z,28.70
2019-03-27T00:37:40.410Z,29.42
2019-03-27T00:40:10.177Z,33.45
2019-03-27T00:42:39.728Z,27.17
2019-03-27T00:45:09.444Z,28.45
2019-03-27T00:47:38.758Z,38.48
2019-03-27T00:50:08.791Z,50.17
2019-03-27T00:52:38.130Z,49.55
2019-03-27T00:55:08.563Z,50.63
2019-03-27T00:57:37.811Z,49.95
2019-03-27T01:00:13.729Z,54.65
2019-03-27T01:02:43.078Z,40.33
2019-03-27T01:05:12.477Z,40.95
2019-03-27T01:07:41.808Z,30.82
2019-03-27T01:10:11.658Z,40.28
2019-03-27T01:12:40.986Z,33.67
2019-03-27T01:15:10.289Z,44.65
2019-03-27T01:17:39.646Z,36.08
2019-03-27T01:20:09.356Z,42.17
2019-03-27T01:22:38.591Z,47.25
2019-03-27T01:25:08.019Z,43.68
2019-03-27T01:27:37.345Z,44.38
2019-03-27T01:30:07.009Z,45.38
2019-03-27T01:32:36.347Z,41.05
2019-03-27T01:35:05.879Z,49.48
2019-03-27T01:37:35.205Z,36.17
2019-03-27T01:40:05.060Z,34.73
2019-03-27T01:42:34.375Z,42.15
2019-03-27T01:45:04.009Z,41.33
2019-03-27T01:47:33.355Z,39.55
2019-03-27T01:50:02.844Z,39.73
2019-03-27T01:52:32.211Z,43.65
2019-03-27T01:55:01.442Z,37.42
2019-03-27T01:57:30.659Z,40.58
2019-03-27T01:59:59.986Z,56.02
2019-03-27T02:02:29.340Z,47.20
2019-03-27T02:04:58.544Z,39.73
2019-03-27T02:07:27.772Z,41.37
2019-03-27T02:09:57.023Z,35.63
2019-03-27T02:12:26.348Z,43.48
2019-03-27T02:14:55.648Z,44.53
2019-03-27T02:17:24.983Z,44.95
2019-03-27T02:19:54.284Z,38.73
2019-03-27T02:22:23.512Z,47.55
2019-03-27T02:24:52.748Z,43.45
2019-03-27T02:27:22.066Z,42.13
2019-03-27T02:29:51.274Z,43.08
2019-03-27T02:32:21.130Z,51.02
2019-03-27T02:34:50.555Z,49.67
2019-03-27T02:37:19.797Z,40.20
2019-03-27T02:39:49.122Z,43.20
2019-03-27T02:42:18.357Z,49.03
2019-03-27T02:44:47.674Z,40.70
2019-03-27T02:47:16.958Z,46.18
2019-03-27T02:49:46.170Z,45.60
2019-03-27T02:52:15.491Z,49.67
2019-03-27T02:54:45.023Z,47.30
2019-03-27T02:57:14.235Z,43.65
2019-03-27T02:59:43.451Z,53.20
2019-03-27T03:02:12.800Z,44.30
2019-03-27T03:04:42.095Z,57.80
2019-03-27T03:07:11.553Z,44.67
2019-03-27T03:09:40.890Z,53.83
2019-03-27T03:12:10.234Z,41.73
2019-03-27T03:14:39.539Z,50.15
2019-03-27T03:17:08.876Z,60.33
2019-03-27T03:19:38.181Z,52.00
2019-03-27T03:22:07.498Z,54.40
2019-03-27T03:24:36.854Z,52.00
2019-03-27T03:27:06.176Z,48.17
2019-03-27T03:29:35.482Z,57.45
2019-03-27T03:32:04.744Z,57.43
2019-03-27T03:34:34.046Z,49.10
2019-03-27T03:37:03.364Z,48.33
2019-03-27T03:39:32.595Z,47.33
2019-03-27T03:42:01.950Z,51.15
2019-03-27T03:44:31.253Z,53.70
2019-03-27T03:47:00.820Z,49.75
2019-03-27T03:49:30.228Z,45.40
2019-03-27T03:51:59.761Z,49.10
2019-03-27T03:54:29.455Z,47.10
2019-03-27T03:57:00.581Z,51.95
2019-03-27T03:59:30.606Z,48.25
2019-03-27T04:02:02.558Z,47.55
2019-03-27T04:04:32.424Z,44.08
2019-03-27T04:07:01.763Z,54.85
2019-03-27T04:09:31.094Z,42.93
2019-03-27T04:12:00.474Z,42.62
2019-03-27T04:14:29.682Z,61.73
2019-03-27T04:17:15.829Z,50.15
2019-03-27T04:19:30.178Z,46.63
2019-03-27T04:21:59.687Z,51.42
2019-03-27T04:24:28.996Z,56.08
2019-03-27T04:26:58.344Z,59.98
2019-03-27T04:29:27.565Z,57.03
2019-03-27T04:31:56.903Z,60.92
2019-03-27T04:34:26.224Z,59.13
2019-03-27T04:36:55.556Z,60.15
2019-03-27T04:39:24.864Z,61.77
2019-03-27T04:41:54.480Z,70.87
2019-03-27T04:44:23.802Z,67.53
2019-03-27T04:46:53.130Z,65.60
2019-03-27T04:49:22.362Z,55.95
2019-03-27T04:51:51.586Z,62.03
2019-03-27T04:54:20.786Z,64.42
2019-03-27T04:56:50.135Z,68.20
2019-03-27T04:59:19.433Z,64.70
2019-03-27T05:01:48.781Z,62.15
2019-03-27T05:04:18.361Z,69.12
2019-03-27T05:06:47.626Z,60.80
2019-03-27T05:09:16.865Z,61.20
2019-03-27T05:11:46.220Z,55.88
2019-03-27T05:14:15.515Z,50.85
2019-03-27T05:16:44.846Z,61.37
2019-03-27T05:19:14.193Z,62.70
2019-03-27T05:21:43.448Z,61.28
2019-03-27T05:24:12.648Z,57.40
2019-03-27T05:26:41.996Z,60.85
2019-03-27T05:29:11.339Z,61.23
2019-03-27T05:31:40.510Z,72.47
2019-03-27T05:34:09.825Z,55.28
2019-03-27T05:36:39.151Z,54.40
2019-03-27T05:39:08.496Z,57.23
2019-03-27T05:41:37.844Z,47.60
2019-03-27T05:44:07.142Z,41.73
2019-03-27T05:46:36.707Z,59.83
2019-03-27T05:49:06.075Z,44.53
2019-03-27T05:51:35.397Z,52.30
2019-03-27T05:54:04.745Z,47.03
2019-03-27T05:56:34.081Z,50.33
2019-03-27T05:59:03.389Z,44.33
2019-03-27T06:01:32.702Z,51.20
2019-03-27T06:04:02.044Z,53.60
2019-03-27T06:06:31.355Z,46.92
2019-03-27T06:09:00.695Z,43.35
2019-03-27T06:11:30.039Z,46.95
2019-03-27T06:13:59.362Z,50.15
2019-03-27T06:16:28.692Z,39.95
2019-03-27T06:18:58.069Z,39.30
2019-03-27T06:21:27.363Z,44.50
2019-03-27T06:23:56.584Z,55.17
2019-03-27T06:26:25.951Z,52.75
2019-03-27T06:28:55.267Z,45.30
2019-03-27T06:31:24.589Z,45.95
2019-03-27T06:33:53.929Z,42.13
2019-03-27T06:36:23.277Z,46.90
2019-03-27T06:38:52.616Z,45.48
2019-03-27T06:41:21.971Z,43.38
2019-03-27T06:43:51.190Z,45.08
2019-03-27T06:46:20.512Z,45.17
2019-03-27T06:48:49.914Z,50.08
2019-03-27T06:51:19.220Z,46.68
2019-03-27T06:53:48.551Z,45.60
2019-03-27T06:56:17.794Z,44.90
2019-03-27T06:58:54.583Z,39.60
2019-03-27T07:01:18.346Z,43.17
2019-03-27T07:03:47.704Z,45.25
2019-03-27T07:06:17.019Z,41.23
2019-03-27T07:08:46.389Z,42.65
2019-03-27T07:11:15.785Z,34.85
2019-03-27T07:13:45.132Z,33.85
2019-03-27T07:16:14.452Z,41.55
2019-03-27T07:18:43.819Z,32.23
2019-03-27T07:21:13.179Z,33.45
2019-03-27T07:23:42.425Z,29.55
2019-03-27T07:26:11.775Z,37.58
2019-03-27T07:28:41.110Z,35.63
2019-03-27T07:31:10.432Z,35.55
2019-03-27T07:33:39.815Z,30.75
2019-03-27T07:36:09.049Z,33.67
2019-03-27T07:38:38.411Z,34.23
2019-03-27T07:41:07.783Z,40.55
2019-03-27T07:43:37.114Z,33.80
2019-03-27T07:46:06.432Z,31.77
2019-03-27T07:48:35.788Z,27.30
2019-03-27T07:51:05.123Z,36.90
2019-03-27T07:53:34.489Z,34.30
2019-03-27T07:56:04.357Z,32.20
2019-03-27T07:58:33.685Z,32.88
2019-03-27T08:01:03.031Z,31.90
2019-03-27T08:03:32.398Z,37.53
2019-03-27T08:06:01.715Z,51.02
2019-03-27T08:08:30.959Z,46.98
2019-03-27T08:11:00.300Z,38.70
2019-03-27T08:13:29.646Z,52.70
2019-03-27T08:15:59.036Z,46.28
2019-03-27T08:18:28.383Z,40.05
2019-03-27T08:20:57.709Z,40.25
2019-03-27T08:23:27.072Z,37.55
2019-03-27T08:25:56.637Z,40.23
2019-03-27T08:28:25.882Z,40.28
2019-03-27T08:30:55.216Z,42.15
2019-03-27T08:33:24.639Z,39.85
2019-03-27T08:35:53.948Z,46.55
2019-03-27T08:38:23.306Z,41.83
2019-03-27T08:40:52.657Z,41.35
2019-03-27T08:43:25.363Z,38.28
2019-03-27T08:45:53.425Z,47.20
2019-03-27T08:48:22.761Z,50.55
2019-03-27T08:50:52.139Z,54.65
2019-03-27T08:53:21.527Z,48.45
2019-03-27T08:55:50.920Z,45.03
2019-03-27T08:58:20.162Z,31.00
2019-03-27T09:00:51.330Z,33.70
2019-03-27T09:03:20.654Z,32.65
2019-03-27T09:05:49.990Z,38.28
2019-03-27T09:08:19.345Z,36.85
2019-03-27T09:10:48.670Z,36.38
2019-03-27T09:13:18.020Z,36.00
2019-03-27T09:15:47.431Z,40.20
2019-03-27T09:18:17.083Z,38.53
2019-03-27T09:20:46.495Z,40.98
2019-03-27T09:23:15.847Z,36.83
2019-03-27T09:25:45.175Z,45.40
2019-03-27T09:28:14.405Z,38.80
2019-03-27T09:30:43.732Z,37.55
2019-03-27T09:33:13.090Z,35.58
2019-03-27T09:35:42.388Z,34.70
2019-03-27T09:38:11.757Z,31.65
2019-03-27T09:40:41.098Z,25.90
2019-03-27T09:43:10.433Z,28.15
2019-03-27T09:45:39.800Z,34.25
2019-03-27T09:48:09.139Z,35.15
2019-03-27T09:50:38.487Z,27.93
2019-03-27T09:53:07.833Z,24.98
2019-03-27T09:55:37.187Z,32.73
2019-03-27T09:58:06.531Z,29.42
2019-03-27T10:01:04.782Z,20.17
2019-03-27T10:03:34.122Z,18.85
2019-03-27T10:06:03.580Z,16.55
2019-03-27T10:08:32.945Z,14.28
2019-03-27T10:11:02.759Z,20.62
2019-03-27T10:13:32.147Z,16.95
2019-03-27T10:16:01.495Z,13.75
2019-03-27T10:18:30.833Z,12.47
2019-03-27T10:21:00.228Z,11.55
2019-03-27T10:23:29.567Z,10.82
2019-03-27T10:25:58.888Z,11.68
2019-03-27T10:28:28.148Z,10.08
2019-03-27T10:30:57.391Z,11.18
2019-03-27T10:33:26.735Z,7.60
2019-03-27T10:35:56.085Z,7.05
2019-03-27T10:38:25.455Z,10.30
2019-03-27T10:40:54.787Z,9.73
2019-03-27T10:43:24.195Z,11.22
2019-03-27T10:45:53.517Z,14.20
2019-03-27T10:48:22.768Z,9.95
2019-03-27T10:50:52.034Z,8.18
2019-03-27T10:53:21.391Z,7.67
2019-03-27T10:55:50.714Z,8.85
2019-03-27T10:58:20.078Z,11.93
2019-03-27T11:00:49.975Z,10.80
2019-03-27T11:03:19.536Z,10.18
2019-03-27T11:05:48.903Z,5.53
2019-03-27T11:08:18.239Z,9.15
2019-03-27T11:10:47.566Z,7.25
2019-03-27T11:13:16.814Z,10.98
2019-03-27T11:15:46.137Z,9.05
2019-03-27T11:18:15.831Z,10.25
2019-03-27T11:20:46.104Z,10.88
2019-03-27T11:23:15.423Z,11.05
2019-03-27T11:25:44.744Z,6.87
2019-03-27T11:28:13.985Z,10.38
2019-03-27T11:30:43.301Z,11.88
2019-03-27T11:33:12.639Z,10.38
2019-03-27T11:35:41.979Z,9.33
2019-03-27T11:38:11.328Z,12.37
2019-03-27T11:40:40.664Z,15.60
2019-03-27T11:43:10.107Z,8.48
2019-03-27T11:45:39.432Z,10.10
2019-03-27T11:48:08.775Z,9.85
2019-03-27T11:50:44.613Z,7.70
2019-03-27T11:53:09.306Z,10.25
2019-03-27T11:55:38.571Z,12.53
2019-03-27T11:58:07.902Z,7.87
2019-03-27T12:00:37.262Z,11.05
2019-03-27T12:03:06.520Z,6.97
2019-03-27T12:05:35.864Z,10.50
2019-03-27T12:08:05.229Z,9.58
2019-03-27T12:10:34.822Z,7.25
2019-03-27T12:13:04.251Z,12.65
2019-03-27T12:15:40.723Z,10.32
2019-03-27T12:18:13.177Z,10.68
2019-03-27T12:20:42.521Z,15.13
2019-03-27T12:23:12.011Z,14.33
2019-03-27T12:25:41.918Z,11.90
2019-03-27T12:28:11.291Z,12.28
2019-03-27T12:30:40.617Z,10.43
2019-03-27T12:33:09.976Z,14.93
2019-03-27T12:35:39.195Z,10.40
2019-03-27T12:38:08.541Z,10.40
2019-03-27T12:40:37.883Z,10.45
2019-03-27T12:43:07.399Z,9.43
2019-03-27T12:45:36.989Z,9.75
2019-03-27T12:48:06.207Z,8.23
2019-03-27T12:50:35.592Z,12.35
2019-03-27T12:53:05.117Z,8.90
2019-03-27T12:55:34.535Z,10.70
2019-03-27T12:58:03.866Z,7.95
2019-03-27T13:00:33.308Z,8.50
2019-03-27T13:03:03.238Z,12.73
2019-03-27T13:05:32.573Z,14.35
2019-03-27T13:08:02.279Z,7.80
2019-03-27T13:10:31.624Z,8.68
2019-03-27T13:13:00.990Z,7.55
2019-03-27T13:15:30.372Z,7.50
2019-03-27T13:17:59.707Z,7.78
2019-03-27T13:20:29.143Z,10.68
2019-03-27T13:22:58.517Z,10.53
2019-03-27T13:25:27.837Z,6.12
2019-03-27T13:27:57.159Z,5.70
2019-03-27T13:30:26.742Z,9.25
2019-03-27T13:32:56.052Z,7.50
2019-03-27T13:35:25.572Z,8.83
2019-03-27T13:37:54.922Z,7.08
2019-03-27T13:40:24.284Z,12.55
2019-03-27T13:42:53.685Z,9.75
2019-03-27T13:45:23.068Z,13.58
2019-03-27T13:47:52.325Z,9.68
2019-03-27T13:50:23.708Z,8.88
2019-03-27T13:52:52.952Z,6.75
2019-03-27T13:55:22.291Z,7.53
2019-03-27T13:57:51.668Z,8.10
2019-03-27T14:00:21.731Z,12.65
2019-03-27T14:02:51.035Z,8.05
2019-03-27T14:05:20.622Z,13.72
2019-03-27T14:07:50.029Z,12.55
2019-03-27T14:10:19.383Z,6.95
2019-03-27T14:12:48.685Z,9.33
2019-03-27T14:15:18.363Z,8.90
2019-03-27T14:17:47.711Z,8.73
2019-03-27T14:20:18.822Z,8.83
2019-03-27T14:22:48.407Z,13.80
2019-03-27T14:25:17.918Z,7.85
2019-03-27T14:27:47.336Z,10.45
2019-03-27T14:30:47.067Z,8.03
2019-03-27T14:33:16.567Z,8.30
2019-03-27T14:35:45.905Z,6.55
2019-03-27T14:38:15.803Z,11.38
2019-03-27T14:40:45.177Z,7.45
2019-03-27T14:43:14.536Z,8.08
2019-03-27T14:45:43.878Z,9.08
2019-03-27T14:48:13.193Z,12.10
2019-03-27T14:50:42.670Z,10.15
2019-03-27T14:53:12.018Z,8.13
2019-03-27T14:55:41.343Z,9.88
2019-03-27T14:58:10.694Z,6.33
2019-03-27T15:00:40.102Z,10.48
2019-03-27T15:03:09.420Z,11.10
2019-03-27T15:05:39.376Z,7.30
2019-03-27T15:08:08.701Z,8.53
2019-03-27T15:10:38.047Z,8.63
2019-03-27T15:13:07.412Z,8.83
2019-03-27T15:15:36.748Z,10.13
2019-03-27T15:18:06.073Z,8.13
2019-03-27T15:20:35.436Z,8.70
2019-03-27T15:23:04.865Z,13.10
2019-03-27T15:25:34.239Z,8.58
2019-03-27T15:28:03.592Z,9.93
2019-03-27T15:30:32.815Z,8.65
2019-03-27T15:33:01.955Z,7.72
2019-03-27T15:35:31.816Z,11.88
2019-03-27T15:38:01.156Z,12.33
2019-03-27T15:40:42.633Z,9.38
2019-03-27T15:43:11.988Z,11.90
2019-03-27T15:45:41.438Z,15.00
2019-03-27T15:48:10.807Z,10.23
2019-03-27T15:50:53.639Z,9.05
2019-03-27T15:53:11.564Z,9.80
2019-03-27T15:55:40.900Z,10.98
2019-03-27T15:58:10.224Z,8.83
2019-03-27T16:00:39.571Z,9.55
2019-03-27T16:03:08.806Z,9.75
2019-03-27T16:05:38.128Z,9.10
2019-03-27T16:08:07.464Z,10.50
2019-03-27T16:10:36.799Z,10.50
2019-03-27T16:13:06.029Z,9.53
2019-03-27T16:15:37.006Z,8.93
2019-03-27T16:18:06.629Z,10.10
2019-03-27T16:20:35.940Z,10.50
2019-03-27T16:23:05.283Z,9.58
2019-03-27T16:25:34.615Z,15.23
2019-03-27T16:28:03.992Z,13.55
2019-03-27T16:30:33.320Z,8.90
2019-03-27T16:33:02.667Z,14.80
2019-03-27T16:35:31.980Z,12.20
2019-03-27T16:38:01.294Z,11.33
2019-03-27T16:40:46.667Z,10.40
2019-03-27T16:43:17.164Z,9.43
2019-03-27T16:45:46.815Z,16.50
2019-03-27T16:48:16.153Z,10.93
2019-03-27T16:50:45.692Z,9.33
2019-03-27T16:53:15.175Z,14.18
2019-03-27T16:55:44.690Z,11.68
2019-03-27T16:58:14.044Z,10.98
2019-03-27T17:00:43.404Z,11.97
2019-03-27T17:03:12.768Z,9.25
2019-03-27T17:05:53.392Z,13.55
2019-03-27T17:08:13.394Z,11.65
2019-03-27T17:10:42.728Z,7.67
2019-03-27T17:13:12.199Z,17.95
2019-03-27T17:15:41.543Z,9.13
2019-03-27T17:18:10.886Z,11.88
2019-03-27T17:20:40.219Z,11.18
2019-03-27T17:23:18.122Z,10.98
2019-03-27T17:25:40.860Z,8.00
2019-03-27T17:28:10.245Z,12.55
2019-03-27T17:30:39.539Z,10.80
2019-03-27T17:33:08.867Z,10.10
2019-03-27T17:35:38.123Z,11.25
2019-03-27T17:38:10.762Z,10.32
2019-03-27T17:40:38.724Z,14.07
2019-03-27T17:43:08.068Z,10.58
2019-03-27T17:45:37.404Z,14.45
2019-03-27T17:48:06.753Z,9.58
2019-03-27T17:50:36.061Z,15.55
2019-03-27T17:53:05.402Z,12.35
2019-03-27T17:55:34.743Z,8.93
2019-03-27T17:58:04.102Z,17.02
2019-03-27T18:00:48.478Z,12.70
2019-03-27T18:05:46.383Z,11.97
2019-03-27T18:10:55.895Z,12.90
2019-03-27T18:13:25.108Z,10.28
2019-03-27T18:15:54.303Z,10.72
2019-03-27T18:18:23.595Z,11.55
2019-03-27T18:20:52.899Z,12.78
2019-03-27T18:23:22.089Z,11.10
2019-03-27T18:25:51.365Z,13.68
2019-03-27T18:28:20.573Z,16.17
2019-03-27T18:30:49.848Z,14.18
2019-03-27T18:33:19.147Z,10.23
2019-03-27T18:35:48.395Z,10.40
2019-03-27T18:38:17.821Z,13.10
2019-03-27T18:40:47.093Z,12.07
2019-03-27T18:43:16.390Z,10.90
2019-03-27T18:45:45.673Z,10.55
2019-03-27T18:48:14.976Z,13.83
2019-03-27T18:50:44.272Z,15.20
2019-03-27T18:53:13.474Z,12.70
2019-03-27T18:55:42.781Z,12.05
2019-03-27T18:58:12.083Z,10.65
2019-03-27T19:00:41.373Z,12.88
2019-03-27T19:03:10.659Z,13.60
2019-03-27T19:05:39.939Z,15.88
2019-03-27T19:08:09.228Z,14.47
2019-03-27T19:10:38.398Z,17.82
2019-03-27T19:13:07.709Z,13.65
2019-03-27T19:15:36.891Z,14.85
2019-03-27T19:18:06.219Z,18.50
2019-03-27T19:20:35.420Z,14.43
2019-03-27T19:23:04.710Z,11.25
2019-03-27T19:25:33.986Z,14.65
2019-03-27T19:28:03.294Z,12.82
2019-03-27T19:30:32.554Z,18.35
2019-03-27T19:33:01.886Z,17.10
2019-03-27T19:35:31.206Z,17.42
2019-03-27T19:38:00.531Z,14.43
2019-03-27T19:40:29.807Z,16.00
2019-03-27T19:42:59.142Z,16.12
2019-03-27T19:45:28.527Z,16.55
2019-03-27T19:47:57.711Z,14.80
2019-03-27T19:50:27.022Z,17.02
2019-03-27T19:52:56.208Z,14.47
2019-03-27T19:55:25.372Z,14.53
2019-03-27T19:57:54.679Z,12.70
2019-03-27T20:00:24.057Z,13.22
2019-03-27T20:02:53.260Z,19.60
2019-03-27T20:05:22.724Z,18.17
2019-03-27T20:07:51.908Z,17.25
2019-03-27T20:10:21.106Z,13.35
2019-03-27T20:12:50.457Z,17.35
2019-03-27T20:15:19.717Z,13.28
2019-03-27T20:17:49.012Z,17.95
2019-03-27T20:20:18.333Z,13.48
2019-03-27T20:22:47.515Z,12.78
2019-03-27T20:25:16.790Z,17.35
2019-03-27T20:27:46.351Z,13.28
2019-03-27T20:30:16.396Z,17.23
2019-03-27T20:32:45.765Z,18.65
2019-03-27T20:35:15.031Z,13.88
2019-03-27T20:37:44.312Z,13.72
2019-03-27T20:40:15.332Z,12.80
2019-03-27T20:42:44.548Z,17.12
2019-03-27T20:45:14.123Z,18.50
2019-03-27T20:47:43.548Z,19.10
2019-03-27T20:50:12.878Z,15.23
2019-03-27T20:52:42.325Z,20.02
2019-03-27T20:55:12.014Z,21.00
2019-03-27T20:57:41.184Z,22.25
2019-03-27T21:00:12.927Z,20.85
2019-03-27T21:02:42.143Z,19.77
2019-03-27T21:05:11.666Z,26.57
2019-03-27T21:07:41.020Z,18.67
2019-03-27T21:10:11.180Z,16.87
2019-03-27T21:12:40.435Z,17.75
2019-03-27T21:15:09.953Z,23.15
2019-03-27T21:17:39.249Z,21.82
2019-03-27T21:20:08.876Z,21.80
2019-03-27T21:22:38.208Z,16.40
2019-03-27T21:25:09.463Z,22.02
2019-03-27T21:27:38.927Z,14.50
2019-03-27T21:30:09.131Z,19.70
2019-03-27T21:32:38.410Z,18.62
2019-03-27T21:35:08.746Z,15.58
2019-03-27T21:37:38.187Z,16.80
2019-03-27T21:40:08.200Z,16.45
2019-03-27T21:42:37.507Z,20.68
2019-03-27T21:45:08.118Z,18.57
2019-03-27T21:47:37.340Z,20.43
2019-03-27T21:50:07.284Z,21.10
2019-03-27T21:52:36.595Z,17.20
2019-03-27T21:55:06.363Z,20.37
2019-03-27T21:57:35.669Z,17.25
2019-03-27T22:00:07.125Z,17.52
2019-03-27T22:02:57.501Z,18.35
2019-03-27T22:05:26.846Z,15.28
2019-03-27T22:07:56.126Z,20.57
2019-03-27T22:10:25.416Z,14.60
2019-03-27T22:12:54.758Z,15.85
2019-03-27T22:15:24.072Z,19.00
2019-03-27T22:17:53.253Z,23.27
2019-03-27T22:20:22.580Z,17.10
2019-03-27T22:22:51.850Z,21.95
2019-03-27T22:25:21.155Z,19.23
2019-03-27T22:27:50.360Z,16.02
2019-03-27T22:30:19.661Z,18.87
2019-03-27T22:32:48.949Z,14.65
2019-03-27T22:35:18.452Z,16.55
2019-03-27T22:37:47.752Z,14.70
2019-03-27T22:40:17.063Z,14.13
2019-03-27T22:42:46.273Z,22.17
2019-03-27T22:45:15.565Z,13.90
2019-03-27T22:47:44.775Z,15.43
2019-03-27T22:50:14.126Z,15.48
2019-03-27T22:52:43.311Z,17.50
2019-03-27T22:55:12.599Z,13.48
2019-03-27T22:57:41.946Z,19.95
2019-03-27T23:00:12.620Z,18.87
2019-03-27T23:02:41.904Z,16.87
2019-03-27T23:05:11.531Z,17.67
2019-03-27T23:07:40.760Z,12.53
2019-03-27T23:10:10.333Z,12.98
2019-03-27T23:12:39.787Z,15.55
2019-03-27T23:15:09.445Z,16.35
2019-03-27T23:17:38.529Z,18.00
2019-03-27T23:20:08.151Z,11.53
2019-03-27T23:22:37.328Z,14.28
2019-03-27T23:25:06.881Z,16.70
2019-03-27T23:27:36.156Z,12.40
2019-03-27T23:30:07.030Z,19.77
2019-03-27T23:32:36.331Z,24.55
2019-03-27T23:35:06.063Z,16.87
2019-03-27T23:37:35.337Z,27.85
2019-03-27T23:40:05.255Z,15.80
2019-03-27T23:42:34.578Z,14.53
2019-03-27T23:45:04.378Z,16.32
2019-03-27T23:47:33.655Z,16.42
2019-03-27T23:50:03.073Z,12.15
2019-03-27T23:52:32.369Z,14.38
2019-03-27T23:55:01.675Z,13.62
2019-03-27T23:57:30.880Z,12.20
